createdAt,value
2022-09-23T00:01:22.287Z,11.83
2022-09-23T00:03:49.775Z,12.43
2022-09-23T00:06:22.241Z,12.68
2022-09-23T00:08:50.580Z,11.18
2022-09-23T00:11:21.001Z,14.00
2022-09-23T00:13:50.159Z,12.88
2022-09-23T00:16:21.347Z,12.68
2022-09-23T00:18:50.192Z,11.95
2022-09-23T00:21:19.139Z,15.00
2022-09-23T00:23:46.373Z,15.57
2022-09-23T00:26:16.123Z,12.60
2022-09-23T00:28:43.465Z,13.75
2022-09-23T00:31:13.368Z,13.68
2022-09-23T00:33:40.818Z,14.32
2022-09-23T00:36:16.607Z,12.90
2022-09-23T00:38:45.336Z,13.90
2022-09-23T00:41:15.243Z,14.48
2022-09-23T00:43:44.340Z,14.02
2022-09-23T00:46:20.420Z,13.38
2022-09-23T00:48:50.709Z,13.75
2022-09-23T00:51:23.014Z,16.23
2022-09-23T00:53:52.157Z,17.17
2022-09-23T00:56:22.731Z,14.48
2022-09-23T00:58:51.652Z,15.57
2022-09-23T01:01:20.889Z,13.00
2022-09-23T01:03:49.074Z,14.40
2022-09-23T01:06:16.252Z,14.40
2022-09-23T01:08:45.890Z,14.20
2022-09-23T01:11:37.361Z,14.55
2022-09-23T01:14:53.362Z,14.00
2022-09-23T01:18:21.585Z,13.80
2022-09-23T01:21:14.926Z,14.02
2022-09-23T01:24:14.923Z,13.95
2022-09-23T01:27:36.266Z,14.30
2022-09-23T01:30:33.996Z,15.02
2022-09-23T01:33:04.680Z,16.92
2022-09-23T01:35:39.445Z,13.38
2022-09-23T01:38:28.450Z,15.85
2022-09-23T01:41:03.376Z,15.77
2022-09-23T01:43:50.814Z,14.98
2022-09-23T01:46:24.117Z,17.45
2022-09-23T01:49:15.375Z,16.23
2022-09-23T01:51:49.905Z,13.70
2022-09-23T01:54:55.292Z,13.23
2022-09-23T01:57:31.813Z,15.63
2022-09-23T02:00:11.585Z,15.70
2022-09-23T02:02:57.584Z,15.55
2022-09-23T02:05:30.343Z,16.20
2022-09-23T02:08:08.703Z,14.52
2022-09-23T02:10:47.166Z,15.60
2022-09-23T02:13:22.062Z,15.60
2022-09-23T02:15:53.897Z,16.45
2022-09-23T02:18:25.244Z,13.88
2022-09-23T02:21:00.342Z,16.08
2022-09-23T02:23:33.858Z,16.95
2022-09-23T02:26:29.437Z,15.05
2022-09-23T02:29:32.147Z,15.43
2022-09-23T02:32:17.748Z,17.13
2022-09-23T02:35:01.047Z,16.07
2022-09-23T02:37:37.104Z,14.07
2022-09-23T02:40:16.923Z,16.15
2022-09-23T02:43:29.902Z,16.90
2022-09-23T02:45:57.144Z,16.20
2022-09-23T02:48:34.098Z,18.80
2022-09-23T02:51:03.563Z,16.15
2022-09-23T02:53:35.125Z,16.90
2022-09-23T02:56:12.670Z,15.40
2022-09-23T02:58:39.850Z,14.80
2022-09-23T03:01:26.261Z,17.20
2022-09-23T03:04:09.380Z,18.77
2022-09-23T03:07:00.964Z,18.58
2022-09-23T03:09:49.852Z,18.00
2022-09-23T03:12:39.830Z,17.48
2022-09-23T03:15:26.779Z,15.55
2022-09-23T03:18:01.306Z,16.67
2022-09-23T03:20:46.203Z,15.57
2022-09-23T03:23:15.522Z,15.77
2022-09-23T03:25:47.090Z,17.70
2022-09-23T03:28:17.320Z,16.05
2022-09-23T03:30:45.016Z,16.77
2022-09-23T03:33:16.581Z,16.25
2022-09-23T03:36:23.672Z,17.95
2022-09-23T03:38:54.565Z,16.70
2022-09-23T03:41:41.836Z,16.10
2022-09-23T03:44:10.517Z,17.13
2022-09-23T03:46:37.988Z,16.33
2022-09-23T03:49:15.364Z,16.27
2022-09-23T03:51:44.693Z,15.00
2022-09-23T03:54:12.233Z,16.35
2022-09-23T03:56:39.362Z,16.67
2022-09-23T03:59:06.551Z,17.80
2022-09-23T04:01:33.729Z,15.87
2022-09-23T04:04:01.105Z,15.18
2022-09-23T04:06:28.275Z,16.87
2022-09-23T04:08:55.487Z,15.73
2022-09-23T04:11:22.649Z,15.80
2022-09-23T04:13:49.792Z,15.57
2022-09-23T04:16:17.061Z,17.55
2022-09-23T04:18:44.259Z,15.27
2022-09-23T04:21:11.456Z,14.65
2022-09-23T04:23:38.600Z,12.50
2022-09-23T04:26:06.239Z,13.47
2022-09-23T04:28:34.238Z,14.43
2022-09-23T04:31:07.435Z,14.53
2022-09-23T04:33:34.865Z,17.10
2022-09-23T04:36:02.077Z,13.53
2022-09-23T04:38:29.329Z,13.00
2022-09-23T04:40:56.763Z,13.48
2022-09-23T04:43:23.999Z,13.13
2022-09-23T04:45:59.726Z,15.15
2022-09-23T04:48:27.362Z,13.65
2022-09-23T04:50:54.863Z,12.57
2022-09-23T04:53:22.465Z,13.32
2022-09-23T04:55:50.177Z,11.87
2022-09-23T04:58:17.444Z,11.27
2022-09-23T05:00:44.790Z,12.27
2022-09-23T05:03:13.736Z,12.55
2022-09-23T05:05:40.928Z,12.37
2022-09-23T05:08:08.339Z,10.98
2022-09-23T05:10:35.484Z,12.97
2022-09-23T05:13:02.655Z,10.82
2022-09-23T05:15:29.814Z,13.50
2022-09-23T05:18:00.231Z,12.63
2022-09-23T05:20:27.385Z,12.05
2022-09-23T05:22:56.001Z,11.88
2022-09-23T05:25:23.741Z,10.65
2022-09-23T05:27:50.890Z,12.20
2022-09-23T05:30:18.022Z,11.35
2022-09-23T05:32:45.536Z,11.27
2022-09-23T05:35:12.726Z,10.77
2022-09-23T05:37:39.895Z,11.93
2022-09-23T05:40:07.402Z,11.23
2022-09-23T05:42:34.873Z,12.63
2022-09-23T05:45:02.127Z,14.80
2022-09-23T05:47:29.258Z,11.18
2022-09-23T05:50:00.048Z,11.32
2022-09-23T05:52:27.741Z,12.13
2022-09-23T05:54:55.231Z,13.17
2022-09-23T05:57:22.409Z,14.50
2022-09-23T05:59:49.562Z,11.53
2022-09-23T06:02:16.752Z,13.87
2022-09-23T06:04:43.938Z,13.85
2022-09-23T06:07:11.197Z,12.55
2022-09-23T06:09:38.414Z,12.68
2022-09-23T06:12:06.278Z,11.50
2022-09-23T06:14:33.451Z,12.05
2022-09-23T06:17:00.602Z,13.20
2022-09-23T06:19:27.747Z,11.90
2022-09-23T06:21:54.914Z,13.45
2022-09-23T06:24:25.928Z,14.07
2022-09-23T06:26:55.890Z,13.27
2022-09-23T06:29:23.378Z,13.23
2022-09-23T06:31:50.682Z,11.88
2022-09-23T06:34:18.236Z,12.20
2022-09-23T06:36:46.629Z,11.75
2022-09-23T06:39:14.923Z,13.00
2022-09-23T06:41:43.229Z,12.77
2022-09-23T06:44:14.497Z,12.02
2022-09-23T06:46:41.831Z,11.38
2022-09-23T06:49:09.181Z,12.13
2022-09-23T06:51:36.628Z,13.82
2022-09-23T06:54:03.925Z,12.52
2022-09-23T06:56:36.125Z,12.57
2022-09-23T06:59:06.629Z,11.77
2022-09-23T07:01:34.348Z,11.35
2022-09-23T07:04:01.833Z,13.88
2022-09-23T07:06:29.047Z,13.15
2022-09-23T07:08:56.218Z,12.30
2022-09-23T07:11:23.469Z,12.95
2022-09-23T07:13:50.746Z,12.27
2022-09-23T07:16:18.423Z,11.75
2022-09-23T07:18:45.681Z,12.07
2022-09-23T07:21:18.449Z,12.50
2022-09-23T07:23:48.402Z,14.30
2022-09-23T07:26:17.977Z,12.45
2022-09-23T07:28:45.464Z,12.70
2022-09-23T07:31:15.485Z,11.70
2022-09-23T07:33:44.199Z,11.65
2022-09-23T07:36:15.989Z,11.77
2022-09-23T07:38:45.821Z,11.88
2022-09-23T07:41:16.798Z,11.48
2022-09-23T07:43:44.666Z,10.40
2022-09-23T07:46:16.126Z,11.63
2022-09-23T07:48:44.526Z,11.45
2022-09-23T07:51:20.075Z,10.35
2022-09-23T07:53:51.608Z,13.73
2022-09-23T07:56:20.251Z,11.50
2022-09-23T07:59:00.612Z,14.23
2022-09-23T08:01:33.663Z,15.95
2022-09-23T08:04:04.312Z,11.68
2022-09-23T08:06:31.896Z,11.32
2022-09-23T08:09:00.671Z,11.30
2022-09-23T08:11:28.141Z,12.38
2022-09-23T08:13:55.969Z,11.82
2022-09-23T08:16:24.403Z,12.83
2022-09-23T08:18:51.648Z,12.15
2022-09-23T08:21:20.998Z,12.93
2022-09-23T08:23:48.722Z,11.00
2022-09-23T08:26:20.876Z,14.02
2022-09-23T08:28:49.910Z,13.82
2022-09-23T08:31:17.174Z,12.20
2022-09-23T08:33:44.378Z,13.00
2022-09-23T08:36:11.538Z,13.85
2022-09-23T08:38:38.663Z,12.90
2022-09-23T08:41:20.407Z,12.50
2022-09-23T08:43:52.002Z,12.10
2022-09-23T08:46:29.921Z,11.18
2022-09-23T08:48:59.553Z,13.02
2022-09-23T08:51:48.364Z,12.43
2022-09-23T08:54:17.717Z,12.77
2022-09-23T08:56:49.098Z,12.57
2022-09-23T08:59:20.949Z,12.87
2022-09-23T09:01:48.104Z,12.80
2022-09-23T09:04:21.582Z,11.85
2022-09-23T09:07:36.244Z,11.68
2022-09-23T09:10:43.870Z,13.07
2022-09-23T09:13:31.837Z,12.27
2022-09-23T09:16:58.976Z,13.32
2022-09-23T09:19:35.678Z,11.82
2022-09-23T09:22:12.445Z,12.55
2022-09-23T09:24:40.269Z,12.55
2022-09-23T09:27:13.941Z,12.35
2022-09-23T09:29:49.977Z,11.20
2022-09-23T09:32:36.145Z,12.77
2022-09-23T09:35:17.996Z,13.38
2022-09-23T09:37:47.704Z,14.55
2022-09-23T09:40:17.086Z,13.75
2022-09-23T09:42:50.331Z,13.32
2022-09-23T09:45:40.134Z,11.20
2022-09-23T09:48:28.534Z,12.70
2022-09-23T09:50:55.917Z,14.73
2022-09-23T09:53:25.339Z,11.90
2022-09-23T09:56:06.700Z,11.95
2022-09-23T09:58:43.818Z,12.52
2022-09-23T10:01:29.343Z,12.13
2022-09-23T10:04:03.450Z,13.15
2022-09-23T10:06:33.189Z,10.90
2022-09-23T10:09:19.404Z,11.40
2022-09-23T10:12:15.793Z,12.55
2022-09-23T10:14:43.711Z,10.57
2022-09-23T10:17:24.336Z,12.05
2022-09-23T10:20:00.662Z,12.60
2022-09-23T10:22:32.594Z,11.67
2022-09-23T10:25:10.451Z,11.43
2022-09-23T10:27:38.735Z,13.60
2022-09-23T10:30:27.004Z,14.73
2022-09-23T10:32:56.784Z,13.07
2022-09-23T10:35:26.420Z,12.68
2022-09-23T10:37:55.991Z,12.95
2022-09-23T10:40:49.544Z,11.17
2022-09-23T10:43:44.206Z,11.30
2022-09-23T10:46:37.678Z,12.60
2022-09-23T10:49:23.518Z,12.23
2022-09-23T10:52:16.076Z,12.00
2022-09-23T10:55:13.609Z,12.57
2022-09-23T10:57:53.169Z,12.68
2022-09-23T11:00:37.794Z,11.00
2022-09-23T11:03:38.556Z,13.45
2022-09-23T11:06:11.653Z,11.27
2022-09-23T11:09:12.938Z,11.20
2022-09-23T11:11:46.222Z,11.57
2022-09-23T11:14:38.758Z,13.30
2022-09-23T11:17:06.000Z,12.77
2022-09-23T11:19:34.019Z,12.07
2022-09-23T11:22:08.976Z,12.27
2022-09-23T11:24:36.149Z,11.45
2022-09-23T11:27:40.161Z,11.25
2022-09-23T11:30:12.651Z,11.20
2022-09-23T11:33:21.490Z,13.13
2022-09-23T11:35:57.986Z,12.20
2022-09-23T11:38:32.934Z,12.65
2022-09-23T11:41:09.227Z,12.63
2022-09-23T11:43:39.241Z,13.05
2022-09-23T11:46:23.476Z,12.95
2022-09-23T11:49:05.258Z,11.63
2022-09-23T11:51:40.346Z,11.10
2022-09-23T11:54:15.187Z,14.00
2022-09-23T11:56:58.688Z,12.98
2022-09-23T12:02:33.598Z,12.67
2022-09-23T12:05:23.490Z,14.10
2022-09-23T12:08:04.882Z,12.15
2022-09-23T12:11:01.443Z,11.52
2022-09-23T12:14:03.279Z,11.65
2022-09-23T12:17:04.653Z,11.52
2022-09-23T12:19:43.666Z,10.67
2022-09-23T12:22:45.731Z,11.15
2022-09-23T12:25:46.408Z,12.60
2022-09-23T12:28:19.558Z,10.65
2022-09-23T12:30:48.746Z,12.10
2022-09-23T12:33:24.460Z,10.27
2022-09-23T12:35:54.387Z,12.80
2022-09-23T12:38:47.919Z,13.57
2022-09-23T12:41:23.349Z,12.13
2022-09-23T12:44:12.806Z,12.00
2022-09-23T12:46:44.537Z,10.52
2022-09-23T12:49:29.664Z,10.63
2022-09-23T12:52:12.073Z,11.63
2022-09-23T12:54:40.946Z,10.88
2022-09-23T12:57:33.073Z,13.10
2022-09-23T13:00:06.582Z,12.37
2022-09-23T13:02:38.542Z,10.90
2022-09-23T13:05:27.126Z,12.33
2022-09-23T13:08:14.981Z,10.93
2022-09-23T13:10:48.220Z,11.60
2022-09-23T13:13:31.600Z,11.43
2022-09-23T13:16:26.010Z,10.68
2022-09-23T13:19:05.402Z,12.40
2022-09-23T13:21:45.626Z,12.15
2022-09-23T13:24:12.765Z,12.15
2022-09-23T13:26:49.332Z,10.35
2022-09-23T13:29:29.169Z,9.77
2022-09-23T13:31:57.794Z,10.73
2022-09-23T13:34:30.764Z,11.05
2022-09-23T13:36:58.772Z,10.10
2022-09-23T13:39:27.539Z,12.90
2022-09-23T13:42:03.126Z,14.02
2022-09-23T13:44:30.543Z,11.50
2022-09-23T13:47:00.386Z,12.23
2022-09-23T13:49:32.691Z,10.52
2022-09-23T13:52:01.081Z,11.90
2022-09-23T13:54:46.545Z,12.82
2022-09-23T13:57:43.415Z,10.45
2022-09-23T14:00:17.715Z,11.87
2022-09-23T14:02:46.887Z,11.30
2022-09-23T14:05:25.250Z,12.47
2022-09-23T14:07:53.974Z,10.60
2022-09-23T14:10:23.694Z,10.70
2022-09-23T14:12:52.549Z,10.83
2022-09-23T14:15:21.423Z,12.23
2022-09-23T14:17:52.283Z,12.13
2022-09-23T14:20:22.092Z,12.10
2022-09-23T14:23:04.468Z,12.55
2022-09-23T14:25:33.157Z,10.57
2022-09-23T14:28:01.109Z,9.53
2022-09-23T14:30:29.239Z,12.07
2022-09-23T14:32:57.175Z,10.50
2022-09-23T14:35:38.025Z,11.63
2022-09-23T14:38:24.583Z,11.75
2022-09-23T14:41:15.550Z,13.13
2022-09-23T14:44:00.573Z,11.48
2022-09-23T14:46:31.229Z,11.37
2022-09-23T14:49:03.816Z,13.05
2022-09-23T14:51:51.812Z,11.15
2022-09-23T14:54:40.963Z,10.20
2022-09-23T14:57:22.529Z,11.18
2022-09-23T14:59:53.885Z,10.00
2022-09-23T15:02:31.040Z,10.75
2022-09-23T15:05:15.560Z,12.17
2022-09-23T15:07:51.113Z,9.97
2022-09-23T15:10:32.259Z,11.52
2022-09-23T15:13:06.199Z,12.70
2022-09-23T15:15:33.509Z,10.85
2022-09-23T15:18:15.620Z,11.60
2022-09-23T15:20:56.931Z,12.43
2022-09-23T15:23:51.751Z,12.75
2022-09-23T15:26:21.154Z,11.82
2022-09-23T15:28:49.674Z,12.17
2022-09-23T15:31:22.985Z,12.35
2022-09-23T15:33:51.187Z,11.95
2022-09-23T15:36:25.734Z,13.20
2022-09-23T15:38:55.004Z,12.02
2022-09-23T15:41:23.991Z,11.90
2022-09-23T15:43:51.539Z,10.57
2022-09-23T15:46:22.622Z,13.65
2022-09-23T15:49:00.604Z,12.23
2022-09-23T15:51:28.530Z,12.03
2022-09-23T15:53:56.309Z,12.35
2022-09-23T15:56:24.588Z,14.10
2022-09-23T15:58:51.742Z,12.38
2022-09-23T16:01:26.764Z,12.10
2022-09-23T16:03:54.325Z,12.02
2022-09-23T16:06:24.255Z,12.98
2022-09-23T16:08:52.179Z,12.93
2022-09-23T16:11:24.300Z,11.95
2022-09-23T16:13:51.617Z,12.38
2022-09-23T16:16:22.027Z,13.57
2022-09-23T16:18:51.138Z,12.02
2022-09-23T16:21:21.918Z,13.52
2022-09-23T16:23:51.206Z,14.70
2022-09-23T16:26:22.428Z,15.23
2022-09-23T16:28:51.028Z,14.32
2022-09-23T16:31:18.680Z,15.13
2022-09-23T16:33:47.014Z,15.15
2022-09-23T16:36:31.805Z,16.17
2022-09-23T16:39:01.001Z,16.05
2022-09-23T16:41:29.509Z,15.75
2022-09-23T16:43:57.550Z,13.97
2022-09-23T16:46:24.863Z,18.33
2022-09-23T16:48:53.089Z,17.20
2022-09-23T16:51:23.659Z,16.13
2022-09-23T16:53:51.989Z,17.77
2022-09-23T16:56:27.251Z,16.40
2022-09-23T16:58:55.963Z,17.38
2022-09-23T17:01:44.739Z,19.95
2022-09-23T17:04:13.115Z,19.17
2022-09-23T17:06:44.201Z,18.10
2022-09-23T17:09:12.043Z,19.80
2022-09-23T17:11:39.418Z,19.13
2022-09-23T17:14:06.730Z,16.20
2022-09-23T17:16:34.860Z,15.23
2022-09-23T17:19:10.292Z,14.10
2022-09-23T17:21:37.811Z,12.38
2022-09-23T17:24:05.619Z,15.32
2022-09-23T17:26:32.814Z,14.43
2022-09-23T17:29:01.409Z,13.95
2022-09-23T17:31:28.726Z,11.82
2022-09-23T17:33:56.102Z,10.02
2022-09-23T17:36:23.439Z,13.15
2022-09-23T17:38:53.754Z,12.43
2022-09-23T17:41:21.536Z,12.10
2022-09-23T17:43:55.038Z,11.38
2022-09-23T17:46:23.092Z,13.02
2022-09-23T17:48:55.428Z,12.23
2022-09-23T17:51:23.955Z,14.68
2022-09-23T17:53:51.524Z,20.50
2022-09-23T17:56:20.933Z,22.13
2022-09-23T17:58:49.302Z,25.45
2022-09-23T18:01:20.101Z,26.73
2022-09-23T18:03:48.696Z,24.52
2022-09-23T18:06:18.495Z,22.67
2022-09-23T18:08:47.818Z,22.67
2022-09-23T18:11:19.621Z,17.30
2022-09-23T18:13:54.919Z,19.02
2022-09-23T18:16:24.613Z,13.63
2022-09-23T18:18:57.139Z,13.05
2022-09-23T18:21:26.500Z,15.02
2022-09-23T18:23:53.936Z,13.57
2022-09-23T18:26:25.469Z,15.50
2022-09-23T18:28:55.468Z,17.95
2022-09-23T18:31:23.513Z,16.77
2022-09-23T18:33:52.056Z,16.45
2022-09-23T18:36:20.652Z,15.03
2022-09-23T18:38:48.495Z,16.77
2022-09-23T18:41:16.010Z,14.97
2022-09-23T18:43:48.161Z,14.32
2022-09-23T18:46:24.224Z,13.98
2022-09-23T18:49:10.775Z,15.38
2022-09-23T18:51:46.600Z,14.10
2022-09-23T18:54:13.783Z,16.70
2022-09-23T18:56:42.944Z,16.85
2022-09-23T18:59:14.481Z,16.42
2022-09-23T19:01:41.993Z,17.90
2022-09-23T19:04:09.716Z,18.33
2022-09-23T19:06:37.289Z,19.98
2022-09-23T19:09:06.522Z,18.58
2022-09-23T19:11:36.161Z,21.48
2022-09-23T19:14:09.925Z,21.35
2022-09-23T19:16:39.836Z,19.90
2022-09-23T19:19:07.307Z,21.45
2022-09-23T19:21:35.029Z,22.23
2022-09-23T19:24:05.163Z,22.67
2022-09-23T19:26:38.633Z,23.80
2022-09-23T19:29:08.095Z,25.13
2022-09-23T19:31:39.927Z,28.60
2022-09-23T19:34:16.308Z,30.98
2022-09-23T19:36:45.675Z,35.00
2022-09-23T19:39:19.405Z,40.50
2022-09-23T19:41:47.179Z,40.67
2022-09-23T19:44:14.717Z,44.00
2022-09-23T19:46:45.065Z,41.03
2022-09-23T19:49:13.262Z,39.30
2022-09-23T19:51:41.033Z,42.58
2022-09-23T19:54:09.186Z,39.55
2022-09-23T19:56:36.683Z,19.27
2022-09-23T19:59:06.706Z,19.67
2022-09-23T20:01:34.233Z,21.95
2022-09-23T20:04:01.825Z,22.17
2022-09-23T20:06:31.012Z,19.17
2022-09-23T20:09:00.664Z,20.63
2022-09-23T20:11:28.962Z,19.85
2022-09-23T20:14:01.243Z,19.40
2022-09-23T20:16:31.997Z,20.85
2022-09-23T20:19:00.151Z,22.60
2022-09-23T20:21:29.105Z,24.77
2022-09-23T20:23:57.267Z,21.70
2022-09-23T20:26:43.174Z,24.38
2022-09-23T20:29:11.130Z,27.38
2022-09-23T20:31:40.292Z,26.95
2022-09-23T20:34:08.286Z,25.50
2022-09-23T20:36:35.954Z,24.67
2022-09-23T20:39:08.099Z,26.27
2022-09-23T20:41:37.693Z,27.13
2022-09-23T20:44:12.656Z,26.00
2022-09-23T20:46:46.951Z,27.25
2022-09-23T20:49:16.326Z,26.58
2022-09-23T20:51:43.682Z,27.25
2022-09-23T20:54:12.038Z,27.80
2022-09-23T20:56:39.393Z,29.80
2022-09-23T20:59:06.657Z,28.90
2022-09-23T21:01:35.448Z,30.00
2022-09-23T21:04:07.862Z,29.37
2022-09-23T21:06:36.634Z,22.03
2022-09-23T21:09:05.228Z,23.10
2022-09-23T21:11:32.600Z,25.88
2022-09-23T21:14:01.381Z,25.65
2022-09-23T21:16:29.250Z,25.15
2022-09-23T21:18:57.570Z,23.33
2022-09-23T21:21:25.001Z,24.00
2022-09-23T21:23:52.366Z,25.53
2022-09-23T21:26:24.723Z,24.88
2022-09-23T21:28:59.060Z,21.58
2022-09-23T21:31:35.565Z,21.25
2022-09-23T21:34:09.122Z,18.13
2022-09-23T21:36:38.216Z,18.70
2022-09-23T21:39:06.698Z,18.55
2022-09-23T21:41:33.923Z,18.77
2022-09-23T21:44:04.624Z,17.73
2022-09-23T21:46:35.693Z,17.85
2022-09-23T21:49:04.106Z,16.90
2022-09-23T21:51:40.340Z,20.60
2022-09-23T21:54:16.729Z,19.95
2022-09-23T21:56:44.495Z,20.45
2022-09-23T21:59:11.842Z,19.48
2022-09-23T22:01:44.216Z,21.75
2022-09-23T22:04:18.051Z,21.75
2022-09-23T22:06:46.021Z,25.27
2022-09-23T22:09:16.104Z,27.52
2022-09-23T22:12:02.499Z,28.08
2022-09-23T22:14:30.539Z,33.38
2022-09-23T22:17:03.601Z,30.40
2022-09-23T22:19:36.665Z,35.72
2022-09-23T22:22:13.051Z,35.08
2022-09-23T22:24:41.740Z,38.05
2022-09-23T22:27:09.857Z,38.40
2022-09-23T22:29:55.758Z,43.40
2022-09-23T22:32:35.191Z,44.05
2022-09-23T22:35:02.990Z,40.05
2022-09-23T22:37:34.542Z,47.22
2022-09-23T22:40:07.473Z,49.45
2022-09-23T22:42:36.421Z,48.50
2022-09-23T22:45:05.679Z,54.67
2022-09-23T22:47:37.609Z,51.80
2022-09-23T22:50:06.484Z,57.03
2022-09-23T22:52:34.753Z,60.03
2022-09-23T22:55:03.400Z,55.50
2022-09-23T22:57:31.210Z,58.03
2022-09-23T22:59:58.368Z,56.88
2022-09-23T23:02:25.518Z,54.40
2022-09-23T23:04:52.719Z,53.65
2022-09-23T23:07:21.373Z,54.45
2022-09-23T23:09:52.375Z,56.55
2022-09-23T23:12:20.824Z,52.67
2022-09-23T23:14:49.258Z,54.40
2022-09-23T23:17:18.543Z,53.70
2022-09-23T23:19:45.935Z,49.75
2022-09-23T23:22:13.143Z,51.85
2022-09-23T23:24:40.353Z,53.53
2022-09-23T23:27:07.492Z,52.97
2022-09-23T23:29:34.650Z,54.10
2022-09-23T23:32:02.438Z,50.63
2022-09-23T23:34:29.637Z,49.38
2022-09-23T23:36:56.785Z,50.22
2022-09-23T23:39:25.389Z,54.97
2022-09-23T23:41:54.905Z,48.73
2022-09-23T23:44:23.797Z,58.75
2022-09-23T23:46:51.609Z,54.72
2022-09-23T23:49:19.211Z,54.83
2022-09-23T23:51:47.705Z,51.92
2022-09-23T23:54:15.249Z,62.13
2022-09-23T23:56:42.896Z,54.45
2022-09-23T23:59:10.152Z,57.40
